Date,TemperatureHighF,TemperatureAvgF,TemperatureLowF,DewpointHighF,DewpointAvgF,DewpointLowF,HumidityHigh,HumidityAvg,HumidityLow,PressureMaxIn,PressureMinIn,WindSpeedMaxMPH,WindSpeedAvgMPH,GustSpeedMaxMPH,PrecipitationSumIn
2013-3-1,33.5,28.5,23.3,27.0,21.3,16.0,80,74,67,30.02,29.80,25,16,0,0.00
2013-3-2,27.8,24.0,19.6,20.0,16.7,13.0,77,73,69,30.02,29.95,21,13,0,0.00
2013-3-3,26.4,23.4,20.0,20.0,16.6,12.0,82,75,69,29.97,29.90,23,12,0,0.00
2013-3-4,31.4,26.4,22.0,23.0,18.6,16.0,79,73,64,30.11,29.96,24,13,0,0.00
2013-3-5,34.4,28.2,24.3,29.0,21.6,18.0,82,76,66,30.14,30.00,24,10,0,0.00
2013-3-6,41.3,36.8,32.2,34.0,30.5,27.0,85,78,66,30.18,29.99,18,7,0,0.00
2013-3-7,39.7,36.3,34.2,35.0,32.5,30.0,93,86,77,30.32,30.18,11,3,0,0.04
2013-3-8,43.2,39.0,35.7,33.0,30.6,25.0,87,73,54,30.42,30.31,16,9,0,0.00
2013-3-9,38.9,36.7,33.0,35.0,31.9,30.0,89,83,75,30.42,30.19,13,5,0,0.00
2013-3-10,46.1,41.4,37.9,37.0,35.8,34.0,88,81,68,30.19,29.94,8,5,0,0.00
2013-3-11,46.3,43.9,41.5,41.0,38.4,36.0,91,81,68,29.94,29.61,12,4,0,0.15
2013-3-12,43.7,39.2,34.8,42.0,35.2,32.0,94,85,76,29.88,29.65,24,13,0,0.02
2013-3-13,35.5,32.2,24.0,32.0,25.3,11.0,92,76,57,30.02,29.83,31,15,0,0.00
2013-3-14,32.4,26.7,20.8,18.0,12.7,4.0,78,58,32,30.12,30.02,28,16,0,0.00
2013-3-15,40.4,34.4,29.2,31.0,24.0,17.0,82,67,49,30.06,29.74,40,17,0,0.00
2013-3-16,31.8,26.7,23.4,20.0,17.2,12.0,86,68,51,30.01,29.90,14,7,0,0.00
2013-3-17,30.1,26.4,24.3,18.0,12.7,7.0,75,57,43,30.37,30.02,17,9,0,0.00
2013-3-18,34.4,29.7,22.8,32.0,21.0,9.0,95,71,54,30.36,29.68,31,15,0,0.00
2013-3-19,37.8,33.1,27.7,37.0,28.5,21.0,96,84,71,29.83,29.60,26,17,0,0.01
2013-3-20,32.1,29.3,26.3,25.0,20.9,15.0,87,71,52,29.86,29.80,29,19,0,0.00
2013-3-21,32.1,27.4,23.5,28.0,21.1,17.0,88,77,66,29.84,29.70,22,15,0,0.00
2013-3-22,36.0,32.0,27.8,27.0,24.5,20.0,84,74,64,29.95,29.76,22,15,0,0.00
2013-3-23,40.0,35.3,32.3,28.0,25.3,22.0,80,68,50,30.05,29.94,20,12,0,0.00
2013-3-24,36.6,34.4,31.2,28.0,24.8,21.0,77,68,55,30.06,29.77,15,7,0,0.00
2013-3-25,42.3,37.9,35.0,31.0,28.6,27.0,75,69,57,29.77,29.66,24,9,0,0.00
2013-3-26,47.7,43.0,38.4,30.0,27.7,23.0,66,56,39,29.97,29.77,23,13,0,0.00
2013-3-27,43.5,39.6,36.5,34.0,30.4,27.0,85,70,58,30.09,29.93,26,15,0,0.00
2013-3-28,44.5,41.3,37.1,33.0,31.1,26.0,82,68,50,30.22,30.08,18,10,0,0.00
2013-3-29,50.6,43.5,39.1,33.0,29.8,21.0,76,60,37,30.22,30.12,17,9,0,0.00
2013-3-30,46.0,40.7,36.2,35.0,30.3,24.0,78,67,49,30.22,30.01,12,6,0,0.00
2013-3-31,46.7,42.4,39.0,41.0,35.4,31.0,89,76,65,30.01,29.59,21,4,0,0.02